createdAt,value
2018-07-17T00:00:22.058Z,83
2018-07-17T00:01:24.092Z,83
2018-07-17T00:02:26.143Z,83
2018-07-17T00:03:28.188Z,83
2018-07-17T00:04:30.229Z,84
2018-07-17T00:05:32.274Z,83
2018-07-17T00:06:34.626Z,83
2018-07-17T00:07:37.059Z,83
2018-07-17T00:08:39.102Z,83
2018-07-17T00:09:41.157Z,83
2018-07-17T00:10:43.195Z,83
2018-07-17T00:11:45.512Z,83
2018-07-17T00:12:47.585Z,83
2018-07-17T00:13:49.612Z,83
2018-07-17T00:14:51.663Z,83
2018-07-17T00:15:54.095Z,83
2018-07-17T00:16:56.137Z,84
2018-07-17T00:17:58.182Z,84
2018-07-17T00:19:00.609Z,84
2018-07-17T00:20:02.661Z,84
2018-07-17T00:21:04.720Z,85
2018-07-17T00:22:06.763Z,85
2018-07-17T00:23:09.096Z,86
2018-07-17T00:24:11.139Z,86
2018-07-17T00:25:13.188Z,85
2018-07-17T00:26:15.230Z,85
2018-07-17T00:27:17.275Z,86
2018-07-17T00:28:19.324Z,86
2018-07-17T00:29:21.745Z,86
2018-07-17T00:30:23.792Z,87
2018-07-17T00:31:25.835Z,86
2018-07-17T00:32:28.263Z,86
2018-07-17T00:33:30.342Z,86
2018-07-17T00:34:32.373Z,85
2018-07-17T00:35:34.720Z,85
2018-07-17T00:36:36.760Z,85
2018-07-17T00:37:39.192Z,85
2018-07-17T00:38:41.241Z,85
2018-07-17T00:39:43.567Z,86
2018-07-17T00:40:45.914Z,87
2018-07-17T00:41:47.960Z,87
2018-07-17T00:42:50.321Z,88
2018-07-17T00:43:52.372Z,88
2018-07-17T00:44:54.429Z,88
2018-07-17T00:45:56.482Z,88
2018-07-17T00:46:58.508Z,88
2018-07-17T00:48:00.921Z,89
2018-07-17T00:49:02.957Z,89
2018-07-17T00:50:05.000Z,88
2018-07-17T00:51:07.046Z,89
2018-07-17T00:52:09.090Z,89
2018-07-17T00:53:11.135Z,89
2018-07-17T00:54:13.179Z,88
2018-07-17T00:55:15.222Z,88
2018-07-17T00:56:17.277Z,88
2018-07-17T00:57:19.329Z,88
2018-07-17T00:58:21.374Z,88
2018-07-17T00:59:23.421Z,88
2018-07-17T01:00:25.747Z,88
2018-07-17T01:01:28.069Z,89
2018-07-17T01:02:30.801Z,89
2018-07-17T01:03:33.239Z,89
2018-07-17T01:04:35.275Z,89
2018-07-17T01:05:37.319Z,89
2018-07-17T01:06:39.350Z,89
2018-07-17T01:07:41.396Z,89
2018-07-17T01:08:43.838Z,89
2018-07-17T01:09:45.873Z,89
2018-07-17T01:10:47.918Z,89
2018-07-17T01:11:49.966Z,89
2018-07-17T01:12:52.018Z,90
2018-07-17T01:13:54.348Z,90
2018-07-17T01:14:56.385Z,90
2018-07-17T01:15:58.446Z,90
2018-07-17T01:17:00.488Z,90
2018-07-17T01:18:02.524Z,90
2018-07-17T01:19:04.839Z,90
2018-07-17T01:20:06.895Z,90
2018-07-17T01:21:08.942Z,90
2018-07-17T01:22:10.986Z,90
2018-07-17T01:23:13.026Z,90
2018-07-17T01:24:15.354Z,90
2018-07-17T01:25:17.402Z,90
2018-07-17T01:26:19.449Z,90
2018-07-17T01:27:21.760Z,90
2018-07-17T01:28:24.103Z,90
2018-07-17T01:29:26.144Z,90
2018-07-17T01:30:28.182Z,90
2018-07-17T01:31:30.658Z,90
2018-07-17T01:32:32.704Z,90
2018-07-17T01:33:34.748Z,90
2018-07-17T01:34:36.799Z,90
2018-07-17T01:35:38.837Z,90
2018-07-17T01:36:40.887Z,90
2018-07-17T01:37:42.927Z,90
2018-07-17T01:38:44.970Z,90
2018-07-17T01:39:47.024Z,89
2018-07-17T01:40:49.064Z,89
2018-07-17T01:41:51.098Z,90
2018-07-17T01:42:53.778Z,90
2018-07-17T01:43:55.813Z,90
2018-07-17T01:44:57.862Z,90
2018-07-17T01:45:59.910Z,90
2018-07-17T01:47:01.953Z,90
2018-07-17T01:48:04.009Z,90
2018-07-17T01:49:06.036Z,91
2018-07-17T01:50:08.086Z,91
2018-07-17T01:51:10.138Z,90
2018-07-17T01:52:12.183Z,91
2018-07-17T01:53:14.224Z,91
2018-07-17T01:54:16.262Z,91
2018-07-17T01:55:18.299Z,91
2018-07-17T01:56:20.343Z,90
2018-07-17T01:57:22.382Z,90
2018-07-17T01:58:24.412Z,91
2018-07-17T01:59:26.458Z,90
2018-07-17T02:00:28.520Z,90
2018-07-17T02:01:30.552Z,90
2018-07-17T02:02:32.599Z,90
2018-07-17T02:03:34.931Z,91
2018-07-17T02:04:36.972Z,91
2018-07-17T02:05:39.015Z,91
2018-07-17T02:06:41.044Z,92
2018-07-17T02:07:43.097Z,92
2018-07-17T02:08:45.523Z,92
2018-07-17T02:09:47.561Z,92
2018-07-17T02:10:49.607Z,91
2018-07-17T02:11:51.963Z,91
2018-07-17T02:12:54.317Z,91
2018-07-17T02:13:56.358Z,92
2018-07-17T02:14:58.402Z,92
2018-07-17T02:16:00.725Z,92
2018-07-17T02:17:02.762Z,92
2018-07-17T02:18:05.192Z,92
2018-07-17T02:19:07.519Z,92
2018-07-17T02:20:09.560Z,92
2018-07-17T02:21:11.617Z,92
2018-07-17T02:22:13.947Z,92
2018-07-17T02:23:16.406Z,92
2018-07-17T02:24:19.124Z,92
2018-07-17T02:25:21.168Z,92
2018-07-17T02:26:23.596Z,92
2018-07-17T02:27:25.644Z,92
2018-07-17T02:28:27.692Z,92
2018-07-17T02:29:30.046Z,92
2018-07-17T02:30:32.474Z,92
2018-07-17T02:31:34.603Z,93
2018-07-17T02:32:36.642Z,92
2018-07-17T02:33:38.685Z,92
2018-07-17T02:34:40.728Z,93
2018-07-17T02:35:42.768Z,92
2018-07-17T02:36:44.805Z,92
2018-07-17T02:37:47.149Z,92
2018-07-17T02:38:49.192Z,92
2018-07-17T02:39:51.850Z,92
2018-07-17T02:40:53.883Z,92
2018-07-17T02:41:55.926Z,93
2018-07-17T02:42:57.976Z,93
2018-07-17T02:44:00.012Z,93
2018-07-17T02:45:02.056Z,92
2018-07-17T02:46:04.482Z,92
2018-07-17T02:47:06.533Z,92
2018-07-17T02:48:08.569Z,92
2018-07-17T02:49:10.609Z,92
2018-07-17T02:50:12.953Z,93
2018-07-17T02:51:15.286Z,93
2018-07-17T02:52:17.332Z,93
2018-07-17T02:53:19.379Z,93
2018-07-17T02:54:21.699Z,93
2018-07-17T02:55:23.729Z,92
2018-07-17T02:56:27.059Z,92
2018-07-17T02:57:29.401Z,92
2018-07-17T02:58:31.445Z,92
2018-07-17T02:59:33.495Z,92
2018-07-17T03:00:35.817Z,92
2018-07-17T03:01:38.240Z,92
2018-07-17T03:02:40.288Z,92
2018-07-17T03:03:42.615Z,92
2018-07-17T03:04:44.673Z,93
2018-07-17T03:05:47.100Z,93
2018-07-17T03:06:49.849Z,93
2018-07-17T03:07:52.258Z,93
2018-07-17T03:08:54.686Z,93
2018-07-17T03:09:57.115Z,93
2018-07-17T03:10:59.165Z,93
2018-07-17T03:12:01.195Z,93
2018-07-17T03:13:03.554Z,93
2018-07-17T03:14:05.587Z,93
2018-07-17T03:15:07.938Z,92
2018-07-17T03:16:10.262Z,92
2018-07-17T03:17:12.609Z,92
2018-07-17T03:18:14.646Z,92
2018-07-17T03:19:16.689Z,91
2018-07-17T03:20:19.020Z,91
2018-07-17T03:21:21.337Z,91
2018-07-17T03:22:24.070Z,92
2018-07-17T03:23:26.115Z,92
2018-07-17T03:24:28.317Z,93
2018-07-17T03:25:30.640Z,93
2018-07-17T03:26:32.684Z,93
2018-07-17T03:27:34.730Z,93
2018-07-17T03:28:37.056Z,93
2018-07-17T03:29:39.098Z,92
2018-07-17T03:30:41.156Z,92
2018-07-17T03:31:43.757Z,92
2018-07-17T03:32:46.184Z,92
2018-07-17T03:33:48.231Z,92
2018-07-17T03:34:50.282Z,93
2018-07-17T03:35:52.707Z,93
2018-07-17T03:36:54.750Z,93
2018-07-17T03:37:56.808Z,93
2018-07-17T03:38:59.157Z,93
2018-07-17T03:40:01.880Z,93
2018-07-17T03:41:03.920Z,92
2018-07-17T03:42:05.957Z,92
2018-07-17T03:43:08.003Z,92
2018-07-17T03:44:10.039Z,93
2018-07-17T03:45:12.093Z,93
2018-07-17T03:46:14.136Z,93
2018-07-17T03:47:16.177Z,93
2018-07-17T03:48:18.222Z,93
2018-07-17T03:49:20.572Z,92
2018-07-17T03:50:22.614Z,92
2018-07-17T03:51:24.660Z,92
2018-07-17T03:52:26.700Z,92
2018-07-17T03:53:28.742Z,92
2018-07-17T03:54:30.790Z,92
2018-07-17T03:55:32.824Z,92
2018-07-17T03:56:34.854Z,92
2018-07-17T03:57:36.898Z,92
2018-07-17T03:58:38.946Z,92
2018-07-17T03:59:41.284Z,93
2018-07-17T04:00:43.319Z,93
2018-07-17T04:01:45.746Z,93
2018-07-17T04:02:47.841Z,93
2018-07-17T04:03:49.816Z,93
2018-07-17T04:04:51.864Z,93
2018-07-17T04:05:53.920Z,93
2018-07-17T04:06:55.966Z,93
2018-07-17T04:07:58.004Z,93
2018-07-17T04:09:00.053Z,93
2018-07-17T04:10:02.490Z,93
2018-07-17T04:11:04.797Z,93
2018-07-17T04:12:06.847Z,94
2018-07-17T04:13:09.226Z,94
2018-07-17T04:14:11.842Z,94
2018-07-17T04:15:14.179Z,94
2018-07-17T04:16:16.278Z,93
2018-07-17T04:17:18.610Z,94
2018-07-17T04:18:21.045Z,93
2018-07-17T04:19:23.356Z,94
2018-07-17T04:20:25.409Z,93
2018-07-17T04:21:27.452Z,93
2018-07-17T04:22:29.491Z,93
2018-07-17T04:23:31.531Z,93
2018-07-17T04:24:33.858Z,93
2018-07-17T04:25:35.908Z,93
2018-07-17T04:26:37.945Z,93
2018-07-17T04:27:40.667Z,93
2018-07-17T04:28:43.089Z,93
2018-07-17T04:29:45.167Z,93
2018-07-17T04:30:47.179Z,93
2018-07-17T04:31:49.675Z,93
2018-07-17T04:32:52.432Z,93
2018-07-17T04:33:54.473Z,93
2018-07-17T04:34:56.519Z,93
2018-07-17T04:35:58.573Z,93
2018-07-17T04:37:00.909Z,93
2018-07-17T04:38:03.248Z,93
2018-07-17T04:39:05.280Z,93
2018-07-17T04:40:07.892Z,93
2018-07-17T04:41:09.932Z,93
2018-07-17T04:42:11.974Z,93
2018-07-17T04:43:14.020Z,93
2018-07-17T04:44:16.922Z,93
2018-07-17T04:45:19.341Z,93
2018-07-17T04:46:21.393Z,94
2018-07-17T04:47:23.434Z,94
2018-07-17T04:48:25.469Z,94
2018-07-17T04:49:27.542Z,93
2018-07-17T04:50:29.581Z,93
2018-07-17T04:51:31.614Z,93
2018-07-17T04:52:33.668Z,93
2018-07-17T04:53:36.096Z,93
2018-07-17T04:54:38.424Z,93
2018-07-17T04:55:40.468Z,93
2018-07-17T04:56:42.896Z,93
2018-07-17T04:57:44.937Z,93
2018-07-17T04:58:46.970Z,93
2018-07-17T04:59:49.019Z,93
2018-07-17T05:00:51.072Z,93
2018-07-17T05:01:53.128Z,93
2018-07-17T05:02:55.457Z,93
2018-07-17T05:03:57.497Z,93
2018-07-17T05:04:59.550Z,93
2018-07-17T05:06:01.587Z,93
2018-07-17T05:07:03.636Z,93
2018-07-17T05:08:05.673Z,93
2018-07-17T05:09:07.714Z,93
2018-07-17T05:10:10.043Z,93
2018-07-17T05:11:12.081Z,93
2018-07-17T05:12:14.123Z,93
2018-07-17T05:13:16.167Z,93
2018-07-17T05:14:18.508Z,93
2018-07-17T05:15:20.557Z,93
2018-07-17T05:16:22.619Z,93
2018-07-17T05:17:24.647Z,93
2018-07-17T05:18:26.683Z,93
2018-07-17T05:19:28.723Z,93
2018-07-17T05:20:31.045Z,93
2018-07-17T05:21:33.083Z,93
2018-07-17T05:22:35.130Z,93
2018-07-17T05:23:37.468Z,93
2018-07-17T05:24:39.801Z,92
2018-07-17T05:25:41.859Z,93
2018-07-17T05:26:43.886Z,93
2018-07-17T05:27:45.938Z,93
2018-07-17T05:28:47.995Z,93
2018-07-17T05:29:50.045Z,92
2018-07-17T05:30:52.375Z,92
2018-07-17T05:31:54.430Z,92
2018-07-17T05:32:56.473Z,92
2018-07-17T05:33:58.908Z,92
2018-07-17T05:35:01.014Z,92
2018-07-17T05:36:03.298Z,92
2018-07-17T05:37:05.339Z,91
2018-07-17T05:38:07.373Z,91
2018-07-17T05:39:09.413Z,91
2018-07-17T05:40:11.457Z,91
2018-07-17T05:41:13.503Z,90
2018-07-17T05:42:15.550Z,90
2018-07-17T05:43:17.597Z,90
2018-07-17T05:44:19.639Z,90
2018-07-17T05:45:21.685Z,90
2018-07-17T05:46:24.456Z,90
2018-07-17T05:47:26.934Z,90
2018-07-17T05:48:28.975Z,90
2018-07-17T05:49:31.306Z,90
2018-07-17T05:50:33.343Z,90
2018-07-17T05:51:35.394Z,90
2018-07-17T05:52:37.434Z,89
2018-07-17T05:53:39.471Z,89
2018-07-17T05:54:41.522Z,89
2018-07-17T05:55:43.565Z,88
2018-07-17T05:56:45.610Z,88
2018-07-17T05:57:47.671Z,87
2018-07-17T05:58:49.708Z,87
2018-07-17T05:59:51.751Z,87
2018-07-17T06:00:53.799Z,87
2018-07-17T06:01:55.840Z,87
2018-07-17T06:02:57.896Z,87
2018-07-17T06:03:59.940Z,87
2018-07-17T06:05:02.372Z,87
2018-07-17T06:06:04.424Z,86
2018-07-17T06:07:06.462Z,86
2018-07-17T06:08:08.519Z,86
2018-07-17T06:09:10.568Z,85
2018-07-17T06:10:12.925Z,84
2018-07-17T06:11:14.952Z,84
2018-07-17T06:12:17.002Z,84
2018-07-17T06:13:19.335Z,85
2018-07-17T06:14:21.381Z,84
2018-07-17T06:15:23.724Z,84
2018-07-17T06:16:26.071Z,84
2018-07-17T06:17:28.114Z,83
2018-07-17T06:18:30.162Z,82
2018-07-17T06:19:32.209Z,82
2018-07-17T06:20:34.253Z,82
2018-07-17T06:21:36.308Z,82
2018-07-17T06:22:38.356Z,82
2018-07-17T06:23:40.680Z,82
2018-07-17T06:24:42.732Z,82
2018-07-17T06:25:45.454Z,82
2018-07-17T06:26:48.101Z,82
2018-07-17T06:27:50.434Z,82
2018-07-17T06:28:52.787Z,81
2018-07-17T06:29:54.830Z,81
2018-07-17T06:30:56.888Z,81
2018-07-17T06:31:59.502Z,80
2018-07-17T06:33:01.988Z,81
2018-07-17T06:34:03.995Z,80
2018-07-17T06:35:06.337Z,80
2018-07-17T06:36:08.664Z,78
2018-07-17T06:37:10.706Z,79
2018-07-17T06:38:13.045Z,79
2018-07-17T06:39:15.094Z,78
2018-07-17T06:40:17.133Z,78
2018-07-17T06:41:19.497Z,78
2018-07-17T06:42:21.822Z,77
2018-07-17T06:43:23.878Z,76
2018-07-17T06:44:25.930Z,76
2018-07-17T06:45:27.972Z,76
2018-07-17T06:46:30.028Z,76
2018-07-17T06:47:32.355Z,75
2018-07-17T06:48:34.404Z,74
2018-07-17T06:49:36.466Z,74
2018-07-17T06:50:38.592Z,72
2018-07-17T06:51:40.548Z,72
2018-07-17T06:52:42.645Z,72
2018-07-17T06:53:44.642Z,73
2018-07-17T06:54:46.685Z,73
2018-07-17T06:55:48.734Z,73
2018-07-17T06:56:50.786Z,73
2018-07-17T06:57:52.831Z,73
2018-07-17T06:58:54.870Z,73
2018-07-17T06:59:56.917Z,73
2018-07-17T07:00:58.972Z,73
2018-07-17T07:02:01.018Z,73
2018-07-17T07:03:03.069Z,73
2018-07-17T07:04:05.414Z,72
2018-07-17T07:05:08.247Z,72
2018-07-17T07:06:10.240Z,71
2018-07-17T07:07:12.590Z,72
2018-07-17T07:08:14.637Z,72
2018-07-17T07:09:16.687Z,72
2018-07-17T07:10:18.738Z,71
2018-07-17T07:11:21.158Z,71
2018-07-17T07:12:23.574Z,71
2018-07-17T07:13:25.642Z,70
2018-07-17T07:14:27.684Z,70
2018-07-17T07:15:29.733Z,70
2018-07-17T07:16:31.783Z,70
2018-07-17T07:17:33.827Z,71
2018-07-17T07:18:35.882Z,70
2018-07-17T07:19:37.933Z,70
2018-07-17T07:20:39.985Z,71
2018-07-17T07:21:42.031Z,71
2018-07-17T07:22:44.065Z,69
2018-07-17T07:23:46.120Z,69
2018-07-17T07:24:48.488Z,69
2018-07-17T07:25:50.538Z,69
2018-07-17T07:26:52.589Z,69
2018-07-17T07:27:54.643Z,69
2018-07-17T07:28:57.001Z,69
2018-07-17T07:29:59.055Z,68
2018-07-17T07:31:01.576Z,69
2018-07-17T07:32:03.563Z,69
2018-07-17T07:33:05.907Z,70
2018-07-17T07:34:07.954Z,69
2018-07-17T07:35:09.999Z,69
2018-07-17T07:36:12.353Z,68
2018-07-17T07:37:14.836Z,67
2018-07-17T07:38:17.254Z,67
2018-07-17T07:39:19.316Z,68
2018-07-17T07:40:21.366Z,67
2018-07-17T07:41:23.423Z,66
2018-07-17T07:42:25.468Z,65
2018-07-17T07:43:27.521Z,65
2018-07-17T07:44:29.567Z,65
2018-07-17T07:45:31.627Z,64
2018-07-17T07:46:33.663Z,66
2018-07-17T07:47:35.724Z,64
2018-07-17T07:48:38.054Z,63
2018-07-17T07:49:40.103Z,64
2018-07-17T07:50:42.154Z,64
2018-07-17T07:51:44.209Z,64
2018-07-17T07:52:46.646Z,63
2018-07-17T07:53:48.696Z,62
2018-07-17T07:54:50.739Z,62
2018-07-17T07:55:52.798Z,62
2018-07-17T07:56:54.837Z,62
2018-07-17T07:57:56.894Z,61
2018-07-17T07:58:58.940Z,61
2018-07-17T08:00:00.999Z,62
2018-07-17T08:01:03.045Z,63
2018-07-17T08:02:05.488Z,62
2018-07-17T08:03:07.534Z,64
2018-07-17T08:04:09.584Z,65
2018-07-17T08:05:11.628Z,63
2018-07-17T08:06:13.685Z,61
2018-07-17T08:07:15.737Z,61
2018-07-17T08:08:17.787Z,62
2018-07-17T08:09:19.844Z,62
2018-07-17T08:10:21.890Z,61
2018-07-17T08:11:23.941Z,59
2018-07-17T08:12:26.270Z,59
2018-07-17T08:13:28.321Z,58
2018-07-17T08:14:30.386Z,59
2018-07-17T08:15:32.827Z,57
2018-07-17T08:16:35.264Z,58
2018-07-17T08:17:37.313Z,59
2018-07-17T08:18:39.367Z,58
2018-07-17T08:19:41.434Z,58
2018-07-17T08:20:43.487Z,58
2018-07-17T08:21:45.540Z,57
2018-07-17T08:22:47.594Z,56
2018-07-17T08:23:49.644Z,57
2018-07-17T08:24:51.695Z,57
2018-07-17T08:25:53.744Z,56
2018-07-17T08:26:55.810Z,54
2018-07-17T08:27:57.863Z,53
2018-07-17T08:29:00.296Z,53
2018-07-17T08:30:02.355Z,54
2018-07-17T08:31:04.702Z,54
2018-07-17T08:32:06.754Z,54
2018-07-17T08:33:08.807Z,54
2018-07-17T08:34:10.856Z,54
2018-07-17T08:35:13.204Z,56
2018-07-17T08:36:15.254Z,56
2018-07-17T08:37:17.310Z,56
2018-07-17T08:38:19.665Z,56
2018-07-17T08:39:21.719Z,56
2018-07-17T08:40:23.771Z,54
2018-07-17T08:41:25.820Z,53
2018-07-17T08:42:27.874Z,54
2018-07-17T08:43:30.074Z,54
2018-07-17T08:44:32.988Z,53
2018-07-17T08:45:35.349Z,52
2018-07-17T08:46:37.398Z,51
2018-07-17T08:47:39.835Z,51
2018-07-17T08:48:42.477Z,53
2018-07-17T08:49:44.528Z,52
2018-07-17T08:50:46.581Z,52
2018-07-17T08:51:48.930Z,52
2018-07-17T08:52:50.979Z,51
2018-07-17T08:53:53.035Z,49
2018-07-17T08:54:55.090Z,47
2018-07-17T08:55:58.901Z,47
2018-07-17T08:57:00.968Z,47
2018-07-17T08:58:03.296Z,46
2018-07-17T08:59:05.351Z,48
2018-07-17T09:00:07.421Z,46
2018-07-17T09:01:09.439Z,48
2018-07-17T09:02:11.732Z,46
2018-07-17T09:03:13.745Z,46
2018-07-17T09:04:15.758Z,45
2018-07-17T09:05:17.767Z,45
2018-07-17T09:06:19.778Z,46
2018-07-17T09:07:22.085Z,46
2018-07-17T09:08:24.109Z,46
2018-07-17T09:09:26.391Z,46
2018-07-17T09:10:28.794Z,45
2018-07-17T09:11:30.811Z,44
2018-07-17T09:12:32.821Z,45
2018-07-17T09:13:35.225Z,45
2018-07-17T09:14:37.515Z,45
2018-07-17T09:15:39.531Z,45
2018-07-17T09:16:41.549Z,44
2018-07-17T09:17:43.571Z,44
2018-07-17T09:18:45.993Z,43
2018-07-17T09:19:48.001Z,43
2018-07-17T09:20:50.394Z,43
2018-07-17T09:21:52.410Z,41
2018-07-17T09:22:54.430Z,41
2018-07-17T09:23:56.443Z,40
2018-07-17T09:24:58.464Z,41
2018-07-17T09:26:00.476Z,42
2018-07-17T09:27:02.494Z,41
2018-07-17T09:28:04.517Z,42
2018-07-17T09:29:06.516Z,40
2018-07-17T09:30:08.886Z,41
2018-07-17T09:31:11.208Z,42
2018-07-17T09:32:13.226Z,42
2018-07-17T09:33:15.525Z,41
2018-07-17T09:34:17.532Z,41
2018-07-17T09:35:19.942Z,41
2018-07-17T09:36:22.262Z,42
2018-07-17T09:37:24.279Z,42
2018-07-17T09:38:26.302Z,41
2018-07-17T09:39:28.315Z,42
2018-07-17T09:40:30.618Z,41
2018-07-17T09:41:32.626Z,41
2018-07-17T09:42:35.314Z,43
2018-07-17T09:43:37.328Z,43
2018-07-17T09:44:39.347Z,42
2018-07-17T09:45:41.361Z,42
2018-07-17T09:46:43.373Z,42
2018-07-17T09:47:45.391Z,41
2018-07-17T09:48:47.410Z,43
2018-07-17T09:49:49.688Z,44
2018-07-17T09:50:51.721Z,41
2018-07-17T09:51:53.739Z,41
2018-07-17T09:52:56.048Z,41
2018-07-17T09:53:58.464Z,41
2018-07-17T09:55:00.482Z,41
2018-07-17T09:56:02.790Z,43
2018-07-17T09:57:04.806Z,42
2018-07-17T09:58:07.110Z,41
2018-07-17T09:59:09.147Z,42
2018-07-17T10:00:11.170Z,41
2018-07-17T10:01:13.191Z,41
2018-07-17T10:02:15.218Z,42
2018-07-17T10:03:17.626Z,41
2018-07-17T10:04:19.647Z,41
2018-07-17T10:05:21.665Z,40
2018-07-17T10:06:23.733Z,40
2018-07-17T10:07:25.723Z,40
2018-07-17T10:08:27.727Z,39
2018-07-17T10:09:30.211Z,39
2018-07-17T10:10:32.221Z,40
2018-07-17T10:11:34.246Z,39
2018-07-17T10:12:36.270Z,40
2018-07-17T10:13:38.290Z,40
2018-07-17T10:14:40.821Z,39
2018-07-17T10:15:42.833Z,38
2018-07-17T10:16:44.860Z,39
2018-07-17T10:17:47.173Z,38
2018-07-17T10:18:49.189Z,39
2018-07-17T10:19:51.251Z,37
2018-07-17T10:20:53.249Z,37
2018-07-17T10:21:55.265Z,35
2018-07-17T10:22:57.279Z,36
2018-07-17T10:23:59.299Z,37
2018-07-17T10:25:01.328Z,35
2018-07-17T10:26:03.353Z,35
2018-07-17T10:27:05.381Z,35
2018-07-17T10:28:07.705Z,36
2018-07-17T10:29:09.725Z,37
2018-07-17T10:30:11.734Z,37
2018-07-17T10:31:13.763Z,38
2018-07-17T10:32:16.260Z,37
2018-07-17T10:33:18.284Z,38
2018-07-17T10:34:20.299Z,38
2018-07-17T10:35:22.323Z,38
2018-07-17T10:36:24.918Z,39
2018-07-17T10:37:27.233Z,39
2018-07-17T10:38:29.290Z,39
2018-07-17T10:39:31.673Z,38
2018-07-17T10:40:33.691Z,37
2018-07-17T10:41:35.707Z,39
2018-07-17T10:42:38.031Z,38
2018-07-17T10:43:40.329Z,37
2018-07-17T10:44:42.356Z,38
2018-07-17T10:45:44.379Z,37
2018-07-17T10:46:46.408Z,36
2018-07-17T10:47:48.431Z,38
2018-07-17T10:48:50.465Z,38
2018-07-17T10:49:52.582Z,37
2018-07-17T10:50:54.591Z,37
2018-07-17T10:51:56.826Z,38
2018-07-17T10:52:58.961Z,37
2018-07-17T10:54:01.371Z,39
2018-07-17T10:55:03.404Z,39
2018-07-17T10:56:05.420Z,39
2018-07-17T10:57:08.363Z,37
2018-07-17T10:58:10.373Z,38
2018-07-17T10:59:12.400Z,39
2018-07-17T11:00:14.703Z,38
2018-07-17T11:01:21.404Z,38
2018-07-17T11:02:24.075Z,39
2018-07-17T11:03:26.096Z,38
2018-07-17T11:04:28.124Z,37
2018-07-17T11:05:30.161Z,39
2018-07-17T11:06:32.174Z,39
2018-07-17T11:07:34.207Z,37
2018-07-17T11:08:36.238Z,37
2018-07-17T11:09:38.290Z,37
2018-07-17T11:10:40.425Z,38
2018-07-17T11:11:42.731Z,37
2018-07-17T11:12:44.756Z,36
2018-07-17T11:13:46.794Z,39
2018-07-17T11:14:49.197Z,38
2018-07-17T11:15:51.235Z,37
2018-07-17T11:16:53.291Z,37
2018-07-17T11:17:55.312Z,36
2018-07-17T11:18:57.628Z,36
2018-07-17T11:19:59.675Z,35
2018-07-17T11:21:02.045Z,36
2018-07-17T11:22:04.362Z,35
2018-07-17T11:23:06.689Z,36
2018-07-17T11:24:08.708Z,35
2018-07-17T11:25:11.128Z,36
2018-07-17T11:26:13.161Z,35
2018-07-17T11:27:15.186Z,37
2018-07-17T11:28:17.210Z,36
2018-07-17T11:29:19.235Z,36
2018-07-17T11:30:21.263Z,37
2018-07-17T11:31:23.271Z,36
2018-07-17T11:32:25.323Z,36
2018-07-17T11:33:27.361Z,36
2018-07-17T11:34:29.387Z,35
2018-07-17T11:35:31.412Z,36
2018-07-17T11:36:33.445Z,35
2018-07-17T11:37:35.468Z,36
2018-07-17T11:38:37.563Z,38
2018-07-17T11:39:39.528Z,36
2018-07-17T11:40:41.843Z,37
2018-07-17T11:41:43.871Z,36
2018-07-17T11:42:45.892Z,36
2018-07-17T11:43:48.205Z,36
2018-07-17T11:44:50.246Z,36
2018-07-17T11:45:52.267Z,35
2018-07-17T11:46:54.301Z,36
2018-07-17T11:47:56.902Z,36
2018-07-17T11:48:58.848Z,35
2018-07-17T11:50:01.164Z,35
2018-07-17T11:51:03.567Z,36
2018-07-17T11:52:05.595Z,36
2018-07-17T11:53:07.628Z,36
2018-07-17T11:54:09.648Z,35
2018-07-17T11:55:11.962Z,36
2018-07-17T11:56:13.989Z,36
2018-07-17T11:57:16.021Z,37
2018-07-17T11:58:18.047Z,37
2018-07-17T11:59:20.145Z,39
2018-07-17T12:00:22.104Z,39
2018-07-17T12:01:24.125Z,38
2018-07-17T12:02:26.133Z,38
2018-07-17T12:03:28.168Z,38
2018-07-17T12:04:30.206Z,37
2018-07-17T12:05:32.652Z,37
2018-07-17T12:06:34.645Z,38
2018-07-17T12:07:36.663Z,38
2018-07-17T12:08:39.349Z,37
2018-07-17T12:09:41.379Z,37
2018-07-17T12:10:43.410Z,38
2018-07-17T12:11:45.428Z,38
2018-07-17T12:12:47.614Z,38
2018-07-17T12:13:49.973Z,38
2018-07-17T12:14:51.993Z,37
2018-07-17T12:15:54.030Z,37
2018-07-17T12:16:56.055Z,37
2018-07-17T12:17:58.085Z,36
2018-07-17T12:19:00.108Z,36
2018-07-17T12:20:02.907Z,36
2018-07-17T12:21:04.746Z,37
2018-07-17T12:22:07.055Z,36
2018-07-17T12:23:09.069Z,36
2018-07-17T12:24:11.099Z,36
2018-07-17T12:25:13.124Z,36
2018-07-17T12:26:15.429Z,35
2018-07-17T12:27:17.459Z,35
2018-07-17T12:28:19.501Z,35
2018-07-17T12:29:21.537Z,36
2018-07-17T12:30:23.558Z,36
2018-07-17T12:31:25.585Z,36
2018-07-17T12:32:27.817Z,34
2018-07-17T12:33:29.841Z,35
2018-07-17T12:34:31.860Z,35
2018-07-17T12:35:34.290Z,37
2018-07-17T12:36:36.317Z,36
2018-07-17T12:37:38.612Z,36
2018-07-17T12:38:40.652Z,36
2018-07-17T12:39:42.955Z,37
2018-07-17T12:40:44.998Z,35
2018-07-17T12:41:47.025Z,35
2018-07-17T12:42:49.054Z,36
2018-07-17T12:43:51.081Z,35
2018-07-17T12:44:53.101Z,36
2018-07-17T12:45:55.417Z,36
2018-07-17T12:46:57.830Z,34
2018-07-17T12:48:00.808Z,36
2018-07-17T12:49:02.827Z,35
2018-07-17T12:50:05.447Z,36
2018-07-17T12:51:07.347Z,35
2018-07-17T12:52:09.374Z,35
2018-07-17T12:53:11.399Z,35
2018-07-17T12:54:13.731Z,35
2018-07-17T12:55:16.061Z,36
2018-07-17T12:56:18.155Z,36
2018-07-17T12:57:20.456Z,36
2018-07-17T12:58:22.870Z,36
2018-07-17T12:59:24.901Z,36
2018-07-17T13:00:27.479Z,37
2018-07-17T13:01:29.801Z,37
2018-07-17T13:02:31.822Z,38
2018-07-17T13:03:34.143Z,37
2018-07-17T13:04:36.167Z,37
2018-07-17T13:05:38.193Z,37
2018-07-17T13:06:40.218Z,36
2018-07-17T13:07:42.251Z,37
2018-07-17T13:08:44.264Z,37
2018-07-17T13:09:46.596Z,36
2018-07-17T13:10:48.613Z,35
2018-07-17T13:11:50.646Z,36
2018-07-17T13:12:52.672Z,36
2018-07-17T13:13:54.699Z,36
2018-07-17T13:14:57.113Z,37
2018-07-17T13:15:59.137Z,37
2018-07-17T13:17:01.174Z,35
2018-07-17T13:18:03.209Z,37
2018-07-17T13:19:05.236Z,36
2018-07-17T13:20:07.254Z,36
2018-07-17T13:21:09.288Z,36
2018-07-17T13:22:11.323Z,37
2018-07-17T13:23:13.357Z,36
2018-07-17T13:24:15.392Z,36
2018-07-17T13:25:17.798Z,37
2018-07-17T13:26:20.109Z,37
2018-07-17T13:27:22.131Z,37
2018-07-17T13:28:24.163Z,37
2018-07-17T13:29:26.756Z,36
2018-07-17T13:30:28.780Z,36
2018-07-17T13:31:31.193Z,37
2018-07-17T13:32:33.220Z,36
2018-07-17T13:33:35.236Z,36
2018-07-17T13:34:37.658Z,37
2018-07-17T13:35:39.699Z,36
2018-07-17T13:36:41.710Z,37
2018-07-17T13:37:43.737Z,36
2018-07-17T13:38:45.774Z,36
2018-07-17T13:39:47.810Z,36
2018-07-17T13:40:49.842Z,36
2018-07-17T13:41:51.881Z,36
2018-07-17T13:42:53.909Z,35
2018-07-17T13:43:55.928Z,35
2018-07-17T13:44:57.954Z,35
2018-07-17T13:45:59.981Z,35
2018-07-17T13:47:02.308Z,35
2018-07-17T13:48:04.332Z,36
2018-07-17T13:49:06.371Z,36
2018-07-17T13:50:08.452Z,36
2018-07-17T13:51:10.409Z,37
2018-07-17T13:52:12.436Z,36
2018-07-17T13:53:14.471Z,37
2018-07-17T13:54:16.503Z,37
2018-07-17T13:55:18.811Z,37
2018-07-17T13:56:20.954Z,36
2018-07-17T13:57:23.308Z,35
2018-07-17T13:58:25.332Z,37
2018-07-17T13:59:27.936Z,36
2018-07-17T14:00:29.959Z,37
2018-07-17T14:01:31.993Z,37
2018-07-17T14:02:34.034Z,38
2018-07-17T14:03:36.057Z,39
2018-07-17T14:04:38.092Z,39
2018-07-17T14:05:40.116Z,38
2018-07-17T14:06:42.148Z,38
2018-07-17T14:07:44.172Z,38
2018-07-17T14:08:46.870Z,36
2018-07-17T14:09:48.916Z,36
2018-07-17T14:10:50.941Z,35
2018-07-17T14:11:52.974Z,36
2018-07-17T14:12:55.008Z,37
2018-07-17T14:13:57.032Z,36
2018-07-17T14:14:59.120Z,36
2018-07-17T14:16:01.093Z,36
2018-07-17T14:17:03.128Z,35
2018-07-17T14:18:05.158Z,36
2018-07-17T14:19:07.195Z,36
2018-07-17T14:20:09.222Z,37
2018-07-17T14:21:11.636Z,37
2018-07-17T14:22:13.681Z,37
2018-07-17T14:23:15.708Z,37
2018-07-17T14:24:17.735Z,36
2018-07-17T14:25:19.767Z,36
2018-07-17T14:26:21.801Z,37
2018-07-17T14:27:23.829Z,37
2018-07-17T14:28:25.863Z,36
2018-07-17T14:29:27.909Z,37
2018-07-17T14:30:29.950Z,38
2018-07-17T14:31:32.359Z,38
2018-07-17T14:32:34.390Z,38
2018-07-17T14:33:36.427Z,38
2018-07-17T14:34:38.456Z,38
2018-07-17T14:35:40.527Z,38
2018-07-17T14:36:42.527Z,37
2018-07-17T14:37:44.559Z,38
2018-07-17T14:38:46.600Z,37
2018-07-17T14:39:48.629Z,38
2018-07-17T14:40:50.658Z,38
2018-07-17T14:41:52.711Z,38
2018-07-17T14:42:54.738Z,38
2018-07-17T14:43:56.782Z,38
2018-07-17T14:44:58.814Z,38
2018-07-17T14:46:00.847Z,38